sensor_id;sensor_type;location;lat;lon;timestamp;pressure;altitude;pressure_sealevel;temperature;humidity
67099;BME280;54288;53.046;5.668;2022-07-30T00:02:24;101980.94;;;15.49;91.03
67099;BME280;54288;53.046;5.668;2022-07-30T00:04:49;101974.91;;;15.44;91.22
67099;BME280;54288;53.046;5.668;2022-07-30T00:07:15;101981.94;;;15.45;90.19
67099;BME280;54288;53.046;5.668;2022-07-30T00:09:41;101979.31;;;15.43;90.30
67099;BME280;54288;53.046;5.668;2022-07-30T00:12:07;101983.69;;;15.44;90.79
67099;BME280;54288;53.046;5.668;2022-07-30T00:14:33;101979.34;;;15.42;91.72
67099;BME280;54288;53.046;5.668;2022-07-30T00:17:00;101978.31;;;15.49;92.18
67099;BME280;54288;53.046;5.668;2022-07-30T00:19:26;101975.88;;;15.41;91.32
67099;BME280;54288;53.046;5.668;2022-07-30T00:21:52;101974.06;;;15.42;92.30
67099;BME280;54288;53.046;5.668;2022-07-30T00:24:19;101960.88;;;15.42;92.83
67099;BME280;54288;53.046;5.668;2022-07-30T00:26:45;101959.91;;;15.46;92.94
67099;BME280;54288;53.046;5.668;2022-07-30T00:29:11;101962.47;;;15.49;93.29
67099;BME280;54288;53.046;5.668;2022-07-30T00:31:37;101964.25;;;15.48;93.39
67099;BME280;54288;53.046;5.668;2022-07-30T00:34:02;101957.28;;;15.44;92.43
67099;BME280;54288;53.046;5.668;2022-07-30T00:36:28;101964.34;;;15.44;92.94
67099;BME280;54288;53.046;5.668;2022-07-30T00:38:54;101953.06;;;15.37;92.77
67099;BME280;54288;53.046;5.668;2022-07-30T00:41:19;101953.91;;;15.38;92.65
67099;BME280;54288;53.046;5.668;2022-07-30T00:43:45;101957.56;;;15.32;91.97
67099;BME280;54288;53.046;5.668;2022-07-30T00:46:11;101959.31;;;15.32;92.11
67099;BME280;54288;53.046;5.668;2022-07-30T00:48:37;101950.53;;;15.33;92.98
67099;BME280;54288;53.046;5.668;2022-07-30T00:51:03;101952.31;;;15.29;92.93
67099;BME280;54288;53.046;5.668;2022-07-30T00:53:28;101961.13;;;15.30;92.59
67099;BME280;54288;53.046;5.668;2022-07-30T00:55:54;101953.34;;;15.22;92.23
67099;BME280;54288;53.046;5.668;2022-07-30T00:58:20;101953.34;;;15.24;91.89
67099;BME280;54288;53.046;5.668;2022-07-30T01:00:47;101950.66;;;15.27;92.39
67099;BME280;54288;53.046;5.668;2022-07-30T01:03:13;101962.94;;;15.28;93.01
67099;BME280;54288;53.046;5.668;2022-07-30T01:05:38;101967.19;;;15.35;93.76
67099;BME280;54288;53.046;5.668;2022-07-30T01:08:04;101971.53;;;15.37;94.49
67099;BME280;54288;53.046;5.668;2022-07-30T01:10:30;101968.94;;;15.34;94.45
67099;BME280;54288;53.046;5.668;2022-07-30T01:12:56;101964.66;;;15.29;94.37
67099;BME280;54288;53.046;5.668;2022-07-30T01:15:24;101965.47;;;15.31;93.90
67099;BME280;54288;53.046;5.668;2022-07-30T01:17:54;101958.56;;;15.27;94.22
67099;BME280;54288;53.046;5.668;2022-07-30T01:20:29;101958.56;;;15.27;94.16
67099;BME280;54288;53.046;5.668;2022-07-30T01:23:47;101968.94;;;15.34;94.52
67099;BME280;54288;53.046;5.668;2022-07-30T01:26:13;101961.00;;;15.36;95.15
67099;BME280;54288;53.046;5.668;2022-07-30T01:28:45;101967.16;;;15.36;94.78
67099;BME280;54288;53.046;5.668;2022-07-30T01:31:14;101973.22;;;15.41;95.39
67099;BME280;54288;53.046;5.668;2022-07-30T01:33:44;101960.88;;;15.42;95.34
67099;BME280;54288;53.046;5.668;2022-07-30T01:36:15;101965.19;;;15.46;95.62
67099;BME280;54288;53.046;5.668;2022-07-30T01:38:46;101973.88;;;15.51;95.74
67099;BME280;54288;53.046;5.668;2022-07-30T01:41:14;101968.53;;;15.52;95.69
67099;BME280;54288;53.046;5.668;2022-07-30T01:43:45;101962.41;;;15.52;95.92
67099;BME280;54288;53.046;5.668;2022-07-30T01:46:14;101960.53;;;15.57;95.97
67099;BME280;54288;53.046;5.668;2022-07-30T01:48:44;101970.88;;;15.66;95.97
67099;BME280;54288;53.046;5.668;2022-07-30T01:51:12;101964.72;;;15.67;95.90
67099;BME280;54288;53.046;5.668;2022-07-30T01:53:42;101962.06;;;15.67;95.72
67099;BME280;54288;53.046;5.668;2022-07-30T01:56:10;101969.94;;;15.68;95.86
67099;BME280;54288;53.046;5.668;2022-07-30T01:58:40;101965.53;;;15.69;95.62
67099;BME280;54288;53.046;5.668;2022-07-30T02:01:33;101956.84;;;15.64;95.88
67099;BME280;54288;53.046;5.668;2022-07-30T02:04:01;101951.50;;;15.67;95.72
67099;BME280;54288;53.046;5.668;2022-07-30T02:06:36;101958.44;;;15.71;96.06
67099;BME280;54288;53.046;5.668;2022-07-30T02:09:07;101958.44;;;15.71;95.87
67099;BME280;54288;53.046;5.668;2022-07-30T02:11:44;101957.63;;;15.67;96.12
67099;BME280;54288;53.046;5.668;2022-07-30T02:14:37;101965.44;;;15.72;96.30
67099;BME280;54288;53.046;5.668;2022-07-30T02:17:07;101952.28;;;15.70;96.25
67099;BME280;54288;53.046;5.668;2022-07-30T02:19:37;101952.28;;;15.70;96.15
67099;BME280;54288;53.046;5.668;2022-07-30T02:22:10;101957.47;;;15.75;96.26
67099;BME280;54288;53.046;5.668;2022-07-30T02:24:40;101952.19;;;15.73;96.36
67099;BME280;54288;53.046;5.668;2022-07-30T02:27:17;101946.13;;;15.70;96.16
67099;BME280;54288;53.046;5.668;2022-07-30T02:29:47;101957.59;;;15.69;96.15
67099;BME280;54288;53.046;5.668;2022-07-30T02:32:19;101945.41;;;15.63;95.46
67099;BME280;54288;53.046;5.668;2022-07-30T02:34:50;101948.00;;;15.65;95.89
67099;BME280;54288;53.046;5.668;2022-07-30T02:37:20;101941.91;;;15.63;95.46
67099;BME280;54288;53.046;5.668;2022-07-30T02:39:49;101942.81;;;15.62;95.21
67099;BME280;54288;53.046;5.668;2022-07-30T02:42:17;101933.34;;;15.53;95.22
67099;BME280;54288;53.046;5.668;2022-07-30T02:44:45;101935.19;;;15.50;94.96
67099;BME280;54288;53.046;5.668;2022-07-30T02:47:14;101930.91;;;15.44;94.65
67099;BME280;54288;53.046;5.668;2022-07-30T02:50:00;101932.78;;;15.38;94.45
67099;BME280;54288;53.046;5.668;2022-07-30T02:52:29;101946.09;;;15.35;94.98
67099;BME280;54288;53.046;5.668;2022-07-30T02:54:59;101945.25;;;15.33;94.62
67099;BME280;54288;53.046;5.668;2022-07-30T02:57:28;101933.94;;;15.26;94.83
67099;BME280;54288;53.046;5.668;2022-07-30T02:59:55;101942.72;;;15.27;95.06
67099;BME280;54288;53.046;5.668;2022-07-30T03:02:23;101943.59;;;15.26;94.63
67099;BME280;54288;53.046;5.668;2022-07-30T03:04:51;101938.47;;;15.20;94.58
67099;BME280;54288;53.046;5.668;2022-07-30T03:07:19;101941.25;;;15.12;93.90
67099;BME280;54288;53.046;5.668;2022-07-30T03:09:46;101950.09;;;15.11;94.20
67099;BME280;54288;53.046;5.668;2022-07-30T03:12:13;101937.03;;;15.05;94.32
67099;BME280;54288;53.046;5.668;2022-07-30T03:14:41;101950.19;;;15.07;94.52
67099;BME280;54288;53.046;5.668;2022-07-30T03:17:09;101951.09;;;15.06;94.47
67099;BME280;54288;53.046;5.668;2022-07-30T03:19:40;101951.00;;;15.09;95.31
67099;BME280;54288;53.046;5.668;2022-07-30T03:22:09;101942.22;;;15.10;95.22
67099;BME280;54288;53.046;5.668;2022-07-30T03:24:38;101950.16;;;15.08;95.39
67099;BME280;54288;53.046;5.668;2022-07-30T03:27:06;101951.91;;;15.08;95.06
67099;BME280;54288;53.046;5.668;2022-07-30T03:29:35;101947.59;;;15.04;95.51
67099;BME280;54288;53.046;5.668;2022-07-30T03:32:03;101955.34;;;15.11;95.82
67099;BME280;54288;53.046;5.668;2022-07-30T03:34:31;101949.28;;;15.08;96.27
67099;BME280;54288;53.046;5.668;2022-07-30T03:37:00;101964.13;;;15.13;96.10
67099;BME280;54288;53.046;5.668;2022-07-30T03:39:27;101962.38;;;15.12;95.81
67099;BME280;54288;53.046;5.668;2022-07-30T03:41:54;101956.25;;;15.12;95.99
67099;BME280;54288;53.046;5.668;2022-07-30T03:44:22;101952.78;;;15.10;96.26
67099;BME280;54288;53.046;5.668;2022-07-30T03:46:51;101956.25;;;15.12;96.23
67099;BME280;54288;53.046;5.668;2022-07-30T03:49:22;101949.31;;;15.06;96.08
67099;BME280;54288;53.046;5.668;2022-07-30T03:51:49;101949.38;;;15.05;96.13
67099;BME280;54288;53.046;5.668;2022-07-30T03:54:17;101949.28;;;15.08;96.11
67099;BME280;54288;53.046;5.668;2022-07-30T03:57:19;101958.06;;;15.10;96.26
67099;BME280;54288;53.046;5.668;2022-07-30T03:59:45;101955.34;;;15.11;96.22
67099;BME280;54288;53.046;5.668;2022-07-30T04:02:12;101951.00;;;15.10;96.37
67099;BME280;54288;53.046;5.668;2022-07-30T04:04:58;101958.84;;;15.13;96.79
67099;BME280;54288;53.046;5.668;2022-07-30T04:07:23;101961.38;;;15.18;96.63
67099;BME280;54288;53.046;5.668;2022-07-30T04:09:49;101950.03;;;15.14;96.65
67099;BME280;54288;53.046;5.668;2022-07-30T04:12:35;101957.91;;;15.16;96.86
67099;BME280;54288;53.046;5.668;2022-07-30T04:15:01;101956.09;;;15.18;96.55
67099;BME280;54288;53.046;5.668;2022-07-30T04:17:35;101970.00;;;15.26;96.79
67099;BME280;54288;53.046;5.668;2022-07-30T04:20:07;101963.88;;;15.25;96.74
67099;BME280;54288;53.046;5.668;2022-07-30T04:22:36;101965.66;;;15.23;96.43
67099;BME280;54288;53.046;5.668;2022-07-30T04:25:04;101974.41;;;15.25;96.31
67099;BME280;54288;53.046;5.668;2022-07-30T04:27:33;101971.81;;;15.24;96.22
67099;BME280;54288;53.046;5.668;2022-07-30T04:30:00;101968.34;;;15.22;96.26
67099;BME280;54288;53.046;5.668;2022-07-30T04:32:26;101974.47;;;15.22;96.50
67099;BME280;54288;53.046;5.668;2022-07-30T04:35:28;101972.63;;;15.26;96.31
67099;BME280;54288;53.046;5.668;2022-07-30T04:38:11;101978.72;;;15.29;96.30
67099;BME280;54288;53.046;5.668;2022-07-30T04:40:40;101978.69;;;15.32;95.87
67099;BME280;54288;53.046;5.668;2022-07-30T04:43:06;101974.28;;;15.33;95.91
67099;BME280;54288;53.046;5.668;2022-07-30T04:45:34;101963.72;;;15.31;96.00
67099;BME280;54288;53.046;5.668;2022-07-30T04:48:02;101989.00;;;15.43;95.82
67099;BME280;54288;53.046;5.668;2022-07-30T04:50:33;101977.63;;;15.41;95.50
67099;BME280;54288;53.046;5.668;2022-07-30T04:53:01;101983.69;;;15.44;95.36
67099;BME280;54288;53.046;5.668;2022-07-30T04:55:33;101984.59;;;15.45;95.54
67099;BME280;54288;53.046;5.668;2022-07-30T04:58:01;101977.47;;;15.47;95.52
67099;BME280;54288;53.046;5.668;2022-07-30T05:00:33;101983.53;;;15.52;95.32
67099;BME280;54288;53.046;5.668;2022-07-30T05:03:01;101990.50;;;15.56;95.10
67099;BME280;54288;53.046;5.668;2022-07-30T05:05:30;101981.63;;;15.58;95.63
67099;BME280;54288;53.046;5.668;2022-07-30T05:07:58;101983.31;;;15.61;95.63
67099;BME280;54288;53.046;5.668;2022-07-30T05:10:26;101983.19;;;15.67;95.03
67099;BME280;54288;53.046;5.668;2022-07-30T05:12:52;101990.88;;;15.76;95.19
67099;BME280;54288;53.046;5.668;2022-07-30T05:15:19;101981.13;;;15.78;95.34
67099;BME280;54288;53.046;5.668;2022-07-30T05:17:46;101996.78;;;15.87;95.15
67099;BME280;54288;53.046;5.668;2022-07-30T05:20:12;101993.16;;;15.92;95.07
67099;BME280;54288;53.046;5.668;2022-07-30T05:22:57;101988.69;;;15.94;95.46
67099;BME280;54288;53.046;5.668;2022-07-30T05:25:23;101991.63;;;16.17;95.01
67099;BME280;54288;53.046;5.668;2022-07-30T05:27:52;101992.03;;;16.69;93.41
67099;BME280;54288;53.046;5.668;2022-07-30T05:30:18;101993.41;;;17.13;91.67
67099;BME280;54288;53.046;5.668;2022-07-30T05:32:49;102002.34;;;17.39;90.34
67099;BME280;54288;53.046;5.668;2022-07-30T05:35:15;102000.03;;;17.58;88.47
67099;BME280;54288;53.046;5.668;2022-07-30T05:37:41;102006.78;;;17.68;88.71
67099;BME280;54288;53.046;5.668;2022-07-30T05:40:07;101999.44;;;17.76;88.12
67099;BME280;54288;53.046;5.668;2022-07-30T05:42:52;101999.91;;;17.90;87.58
67099;BME280;54288;53.046;5.668;2022-07-30T05:45:18;102003.63;;;18.10;87.17
67099;BME280;54288;53.046;5.668;2022-07-30T05:47:44;102003.81;;;18.32;85.99
67099;BME280;54288;53.046;5.668;2022-07-30T05:50:10;102004.09;;;18.49;85.62
67099;BME280;54288;53.046;5.668;2022-07-30T05:52:37;102004.28;;;18.69;84.64
67099;BME280;54288;53.046;5.668;2022-07-30T05:55:18;102005.22;;;18.91;84.13
67099;BME280;54288;53.046;5.668;2022-07-30T05:57:54;102009.75;;;19.12;83.38
67099;BME280;54288;53.046;5.668;2022-07-30T06:00:20;102003.63;;;19.34;82.85
67099;BME280;54288;53.046;5.668;2022-07-30T06:02:52;102013.13;;;19.63;81.70
67099;BME280;54288;53.046;5.668;2022-07-30T06:05:26;102009.94;;;19.76;80.31
67099;BME280;54288;53.046;5.668;2022-07-30T06:07:56;102002.09;;;19.95;80.40
67099;BME280;54288;53.046;5.668;2022-07-30T06:10:24;102009.75;;;20.24;78.17
67099;BME280;54288;53.046;5.668;2022-07-30T06:12:49;102027.25;;;20.51;77.09
67099;BME280;54288;53.046;5.668;2022-07-30T06:15:17;102012.72;;;20.58;76.90
67099;BME280;54288;53.046;5.668;2022-07-30T06:17:44;102025.13;;;20.79;75.94
67099;BME280;54288;53.046;5.668;2022-07-30T06:20:37;102025.19;;;20.77;76.44
67099;BME280;54288;53.046;5.668;2022-07-30T06:23:15;102026.84;;;21.00;75.78
67099;BME280;54288;53.046;5.668;2022-07-30T06:26:01;102032.63;;;21.09;74.95
67099;BME280;54288;53.046;5.668;2022-07-30T06:28:27;102033.31;;;21.33;73.99
67099;BME280;54288;53.046;5.668;2022-07-30T06:30:53;102038.75;;;21.50;72.65
67099;BME280;54288;53.046;5.668;2022-07-30T06:33:22;102044.34;;;21.44;71.88
67099;BME280;54288;53.046;5.668;2022-07-30T06:35:47;102042.25;;;21.32;71.81
67099;BME280;54288;53.046;5.668;2022-07-30T06:38:17;102050.09;;;21.35;70.92
67099;BME280;54288;53.046;5.668;2022-07-30T06:41:01;102044.28;;;21.07;70.89
67099;BME280;54288;53.046;5.668;2022-07-30T06:43:40;102049.25;;;20.96;71.11
67099;BME280;54288;53.046;5.668;2022-07-30T06:46:28;102043.59;;;20.82;71.47
67099;BME280;54288;53.046;5.668;2022-07-30T06:48:54;102052.41;;;20.64;72.67
67099;BME280;54288;53.046;5.668;2022-07-30T06:51:20;102049.47;;;20.28;73.25
67099;BME280;54288;53.046;5.668;2022-07-30T06:53:45;102054.19;;;19.99;74.15
67099;BME280;54288;53.046;5.668;2022-07-30T06:56:12;102057.47;;;19.84;74.50
67099;BME280;54288;53.046;5.668;2022-07-30T06:58:58;102045.75;;;19.66;73.60
67099;BME280;54288;53.046;5.668;2022-07-30T07:01:35;102043.72;;;20.17;72.60
67099;BME280;54288;53.046;5.668;2022-07-30T07:04:01;102055.63;;;20.30;71.52
67099;BME280;54288;53.046;5.668;2022-07-30T07:06:28;102058.19;;;20.73;70.28
67099;BME280;54288;53.046;5.668;2022-07-30T07:08:54;102060.03;;;21.13;69.97
67099;BME280;54288;53.046;5.668;2022-07-30T07:11:28;102065.53;;;21.47;69.05
67099;BME280;54288;53.046;5.668;2022-07-30T07:13:55;102050.59;;;21.81;67.11
67099;BME280;54288;53.046;5.668;2022-07-30T07:16:29;102060.78;;;22.09;66.26
67099;BME280;54288;53.046;5.668;2022-07-30T07:18:55;102059.81;;;22.47;65.14
67099;BME280;54288;53.046;5.668;2022-07-30T07:21:21;102058.78;;;23.00;62.82
67099;BME280;54288;53.046;5.668;2022-07-30T07:23:48;102057.13;;;22.47;61.54
67099;BME280;54288;53.046;5.668;2022-07-30T07:26:44;102058.72;;;21.60;63.29
67099;BME280;54288;53.046;5.668;2022-07-30T07:29:10;102073.88;;;21.78;64.83
67099;BME280;54288;53.046;5.668;2022-07-30T07:31:36;102061.06;;;22.21;62.76
67099;BME280;54288;53.046;5.668;2022-07-30T07:34:02;102067.44;;;22.71;61.52
67099;BME280;54288;53.046;5.668;2022-07-30T07:36:28;102053.81;;;23.10;60.48
67099;BME280;54288;53.046;5.668;2022-07-30T07:38:54;102061.38;;;22.85;58.09
67099;BME280;54288;53.046;5.668;2022-07-30T07:41:21;102071.81;;;22.89;59.93
67099;BME280;54288;53.046;5.668;2022-07-30T07:43:47;102054.22;;;23.19;58.56
67099;BME280;54288;53.046;5.668;2022-07-30T07:46:21;102052.06;;;23.58;57.74
67099;BME280;54288;53.046;5.668;2022-07-30T07:48:47;102058.16;;;22.95;57.37
67099;BME280;54288;53.046;5.668;2022-07-30T07:51:31;102079.75;;;22.03;59.62
67099;BME280;54288;53.046;5.668;2022-07-30T07:53:57;102079.44;;;21.53;60.45
67099;BME280;54288;53.046;5.668;2022-07-30T07:56:23;102068.19;;;21.85;61.37
67099;BME280;54288;53.046;5.668;2022-07-30T07:58:49;102065.91;;;22.49;58.21
67099;BME280;54288;53.046;5.668;2022-07-30T08:01:19;102063.25;;;22.49;58.57
67099;BME280;54288;53.046;5.668;2022-07-30T08:04:04;102059.16;;;23.10;57.30
67099;BME280;54288;53.046;5.668;2022-07-30T08:06:56;102042.38;;;23.56;54.80
67099;BME280;54288;53.046;5.668;2022-07-30T08:09:48;102048.00;;;23.82;55.41
67099;BME280;54288;53.046;5.668;2022-07-30T08:12:34;102049.41;;;24.20;53.87
67099;BME280;54288;53.046;5.668;2022-07-30T08:15:19;102056.72;;;23.22;56.14
67099;BME280;54288;53.046;5.668;2022-07-30T08:17:51;102061.47;;;22.49;58.51
67099;BME280;54288;53.046;5.668;2022-07-30T08:20:19;102066.41;;;22.74;57.67
67099;BME280;54288;53.046;5.668;2022-07-30T08:22:47;102044.69;;;23.14;56.12
67099;BME280;54288;53.046;5.668;2022-07-30T08:25:14;102050.19;;;23.60;55.29
67099;BME280;54288;53.046;5.668;2022-07-30T08:27:39;102051.09;;;23.92;54.83
67099;BME280;54288;53.046;5.668;2022-07-30T08:30:07;102051.41;;;24.17;55.17
67099;BME280;54288;53.046;5.668;2022-07-30T08:32:34;102056.88;;;24.60;54.19
67099;BME280;54288;53.046;5.668;2022-07-30T08:35:04;102054.53;;;23.94;54.24
67099;BME280;54288;53.046;5.668;2022-07-30T08:37:30;102041.72;;;23.03;57.41
67099;BME280;54288;53.046;5.668;2022-07-30T08:39:57;102051.03;;;22.79;57.77
67099;BME280;54288;53.046;5.668;2022-07-30T08:42:23;102069.81;;;23.44;56.04
67099;BME280;54288;53.046;5.668;2022-07-30T08:44:52;102063.78;;;23.71;53.57
67099;BME280;54288;53.046;5.668;2022-07-30T08:47:22;102056.94;;;23.98;53.23
67099;BME280;54288;53.046;5.668;2022-07-30T08:50:10;102055.56;;;24.07;52.70
67099;BME280;54288;53.046;5.668;2022-07-30T08:52:52;102066.66;;;24.46;51.97
67099;BME280;54288;53.046;5.668;2022-07-30T08:55:24;102060.50;;;24.59;51.49
67099;BME280;54288;53.046;5.668;2022-07-30T08:57:50;102049.56;;;24.78;51.08
67099;BME280;54288;53.046;5.668;2022-07-30T09:00:17;102060.56;;;25.17;50.87
67099;BME280;54288;53.046;5.668;2022-07-30T09:02:43;102058.00;;;24.41;51.39
67099;BME280;54288;53.046;5.668;2022-07-30T09:05:10;102064.63;;;24.65;50.69
67099;BME280;54288;53.046;5.668;2022-07-30T09:07:37;102065.53;;;24.50;49.90
67099;BME280;54288;53.046;5.668;2022-07-30T09:10:07;102064.94;;;23.83;51.42
67099;BME280;54288;53.046;5.668;2022-07-30T09:20:14;102079.28;;;24.89;49.66
67099;BME280;54288;53.046;5.668;2022-07-30T09:22:46;102079.63;;;24.38;51.90
67099;BME280;54288;53.046;5.668;2022-07-30T09:28:28;102077.34;;;24.46;50.72
67099;BME280;54288;53.046;5.668;2022-07-30T09:31:14;102079.78;;;24.66;49.53
67099;BME280;54288;53.046;5.668;2022-07-30T09:33:58;102077.03;;;24.81;49.78
67099;BME280;54288;53.046;5.668;2022-07-30T09:36:43;102074.38;;;24.05;50.93
67099;BME280;54288;53.046;5.668;2022-07-30T09:39:36;102087.31;;;24.28;51.99
67099;BME280;54288;53.046;5.668;2022-07-30T09:42:23;102084.44;;;24.47;51.28
67099;BME280;54288;53.046;5.668;2022-07-30T09:45:13;102087.44;;;24.72;49.43
67099;BME280;54288;53.046;5.668;2022-07-30T09:47:44;102095.81;;;24.81;48.70
67099;BME280;54288;53.046;5.668;2022-07-30T09:50:15;102091.53;;;24.32;49.90
67099;BME280;54288;53.046;5.668;2022-07-30T09:52:43;102092.56;;;24.45;50.47
67099;BME280;54288;53.046;5.668;2022-07-30T09:55:12;102096.03;;;24.92;49.28
67099;BME280;54288;53.046;5.668;2022-07-30T09:57:56;102092.19;;;24.96;49.02
67099;BME280;54288;53.046;5.668;2022-07-30T10:00:24;102106.59;;;24.80;48.22
67099;BME280;54288;53.046;5.668;2022-07-30T10:03:17;102092.97;;;24.69;49.44
67099;BME280;54288;53.046;5.668;2022-07-30T10:06:06;102089.53;;;24.67;50.00
67099;BME280;54288;53.046;5.668;2022-07-30T10:09:01;102089.09;;;24.43;49.77
67099;BME280;54288;53.046;5.668;2022-07-30T10:11:27;102088.31;;;24.57;50.65
67099;BME280;54288;53.046;5.668;2022-07-30T10:13:58;102084.53;;;24.61;49.38
67099;BME280;54288;53.046;5.668;2022-07-30T10:16:28;102079.00;;;24.48;49.87
67099;BME280;54288;53.046;5.668;2022-07-30T10:18:57;102086.75;;;24.53;49.78
67099;BME280;54288;53.046;5.668;2022-07-30T10:22:00;102083.50;;;24.63;49.87
67099;BME280;54288;53.046;5.668;2022-07-30T10:24:44;102082.44;;;24.50;50.02
67099;BME280;54288;53.046;5.668;2022-07-30T10:27:30;102083.13;;;24.54;48.92
67099;BME280;54288;53.046;5.668;2022-07-30T10:30:07;102082.81;;;24.29;49.16
67099;BME280;54288;53.046;5.668;2022-07-30T10:32:33;102073.50;;;24.20;49.84
67099;BME280;54288;53.046;5.668;2022-07-30T10:34:59;102080.06;;;24.30;50.81
67099;BME280;54288;53.046;5.668;2022-07-30T10:37:27;102085.13;;;24.50;50.09
67099;BME280;54288;53.046;5.668;2022-07-30T10:40:03;102091.66;;;24.76;47.53
67099;BME280;54288;53.046;5.668;2022-07-30T10:45:18;102089.84;;;24.76;48.35
67099;BME280;54288;53.046;5.668;2022-07-30T10:47:49;102078.38;;;24.74;47.15
67099;BME280;54288;53.046;5.668;2022-07-30T10:50:17;102081.31;;;24.70;48.13
67099;BME280;54288;53.046;5.668;2022-07-30T10:52:46;102088.31;;;24.57;48.21
67099;BME280;54288;53.046;5.668;2022-07-30T10:55:18;102092.66;;;24.44;48.05
67099;BME280;54288;53.046;5.668;2022-07-30T11:00:33;102086.63;;;24.40;47.78
67099;BME280;54288;53.046;5.668;2022-07-30T11:03:22;102085.53;;;24.74;47.45
67099;BME280;54288;53.046;5.668;2022-07-30T11:06:35;102083.59;;;24.62;47.59
67099;BME280;54288;53.046;5.668;2022-07-30T11:08:41;102088.75;;;24.65;47.63
67099;BME280;54288;53.046;5.668;2022-07-30T11:16:21;102100.97;;;24.84;47.26
67099;BME280;54288;53.046;5.668;2022-07-30T11:19:09;102101.59;;;24.74;47.36
67099;BME280;54288;53.046;5.668;2022-07-30T11:21:46;102090.44;;;24.81;46.66
67099;BME280;54288;53.046;5.668;2022-07-30T11:24:45;102100.88;;;24.86;47.85
67099;BME280;54288;53.046;5.668;2022-07-30T11:27:40;102097.59;;;24.81;45.69
67099;BME280;54288;53.046;5.668;2022-07-30T11:30:30;102096.75;;;24.80;44.12
67099;BME280;54288;53.046;5.668;2022-07-30T11:35:30;102091.19;;;24.83;45.98
67099;BME280;54288;53.046;5.668;2022-07-30T11:38:05;102086.66;;;24.99;44.45
67099;BME280;54288;53.046;5.668;2022-07-30T11:43:19;102092.84;;;24.86;44.24
67099;BME280;54288;53.046;5.668;2022-07-30T11:46:07;102093.38;;;24.77;43.16
67099;BME280;54288;53.046;5.668;2022-07-30T11:48:35;102086.03;;;24.80;44.08
67099;BME280;54288;53.046;5.668;2022-07-30T11:51:02;102101.53;;;24.75;45.68
67099;BME280;54288;53.046;5.668;2022-07-30T11:53:28;102097.56;;;24.67;46.79
67099;BME280;54288;53.046;5.668;2022-07-30T11:55:56;102096.28;;;24.58;47.93
67099;BME280;54288;53.046;5.668;2022-07-30T11:58:31;102097.94;;;24.61;45.07
67099;BME280;54288;53.046;5.668;2022-07-30T12:01:00;102099.81;;;24.43;46.08
67099;BME280;54288;53.046;5.668;2022-07-30T12:03:27;102118.59;;;24.28;47.23
67099;BME280;54288;53.046;5.668;2022-07-30T12:06:05;102106.31;;;24.39;47.01
67099;BME280;54288;53.046;5.668;2022-07-30T12:08:39;102102.84;;;24.37;48.52
67099;BME280;54288;53.046;5.668;2022-07-30T12:11:05;102100.78;;;24.42;47.84
67099;BME280;54288;53.046;5.668;2022-07-30T12:13:31;102091.44;;;24.49;45.97
67099;BME280;54288;53.046;5.668;2022-07-30T12:15:57;102103.81;;;24.36;46.22
67099;BME280;54288;53.046;5.668;2022-07-30T12:18:27;102117.47;;;24.32;46.48
67099;BME280;54288;53.046;5.668;2022-07-30T12:20:59;102107.34;;;24.37;47.87
67099;BME280;54288;53.046;5.668;2022-07-30T12:23:26;102113.53;;;24.53;47.70
67099;BME280;54288;53.046;5.668;2022-07-30T12:25:53;102110.25;;;24.48;45.29
67099;BME280;54288;53.046;5.668;2022-07-30T12:28:22;102108.53;;;24.47;46.83
67099;BME280;54288;53.046;5.668;2022-07-30T12:30:49;102114.09;;;24.44;47.80
67099;BME280;54288;53.046;5.668;2022-07-30T12:33:15;102104.38;;;24.57;46.64
67099;BME280;54288;53.046;5.668;2022-07-30T12:35:46;102107.34;;;24.52;46.43
67099;BME280;54288;53.046;5.668;2022-07-30T12:38:13;102099.91;;;24.42;46.95
67099;BME280;54288;53.046;5.668;2022-07-30T12:40:59;102113.81;;;24.64;48.36
67099;BME280;54288;53.046;5.668;2022-07-30T12:43:48;102108.09;;;24.70;46.22
67099;BME280;54288;53.046;5.668;2022-07-30T12:46:25;102110.69;;;24.71;46.20
67099;BME280;54288;53.046;5.668;2022-07-30T12:48:59;102105.56;;;24.82;46.31
67099;BME280;54288;53.046;5.668;2022-07-30T12:51:30;102110.25;;;24.79;45.93
67099;BME280;54288;53.046;5.668;2022-07-30T12:53:58;102105.97;;;24.61;45.41
67099;BME280;54288;53.046;5.668;2022-07-30T12:56:28;102105.63;;;24.51;45.31
67099;BME280;54288;53.046;5.668;2022-07-30T12:58:57;102107.34;;;24.37;45.28
67099;BME280;54288;53.046;5.668;2022-07-30T13:04:05;102111.31;;;24.45;46.78
67099;BME280;54288;53.046;5.668;2022-07-30T13:06:31;102104.06;;;24.47;46.99
67099;BME280;54288;53.046;5.668;2022-07-30T13:08:58;102103.72;;;24.38;46.79
67099;BME280;54288;53.046;5.668;2022-07-30T13:11:26;102105.44;;;24.54;46.38
67099;BME280;54288;53.046;5.668;2022-07-30T13:14:01;102093.81;;;24.54;46.26
67099;BME280;54288;53.046;5.668;2022-07-30T13:16:33;102097.22;;;24.42;45.78
67099;BME280;54288;53.046;5.668;2022-07-30T13:18:59;102094.91;;;24.36;46.24
67099;BME280;54288;53.046;5.668;2022-07-30T13:21:25;102092.91;;;24.55;47.26
67099;BME280;54288;53.046;5.668;2022-07-30T13:23:50;102092.38;;;24.64;48.60
67099;BME280;54288;53.046;5.668;2022-07-30T13:26:16;102102.25;;;24.63;45.66
67099;BME280;54288;53.046;5.668;2022-07-30T13:28:42;102104.13;;;24.46;46.20
67099;BME280;54288;53.046;5.668;2022-07-30T13:31:11;102101.91;;;24.38;46.23
67099;BME280;54288;53.046;5.668;2022-07-30T13:33:38;102104.09;;;24.32;46.27
67099;BME280;54288;53.046;5.668;2022-07-30T13:36:05;102097.16;;;24.28;47.50
67099;BME280;54288;53.046;5.668;2022-07-30T13:38:31;102104.13;;;24.46;47.04
67099;BME280;54288;53.046;5.668;2022-07-30T13:40:57;102104.41;;;24.41;46.68
67099;BME280;54288;53.046;5.668;2022-07-30T13:43:23;102114.09;;;24.44;47.49